sensor_id;sensor_type;location;lat;lon;timestamp;pressure;altitude;pressure_sealevel;temperature;humidity
23616;BME280;11985;49.404;7.734;2023-07-16T00:02:20;97109.22;;;16.23;100.00
23616;BME280;11985;49.404;7.734;2023-07-16T00:07:23;97104.28;;;16.15;100.00
23616;BME280;11985;49.404;7.734;2023-07-16T00:12:25;97092.06;;;16.14;100.00
23616;BME280;11985;49.404;7.734;2023-07-16T00:17:26;97068.41;;;16.13;100.00
23616;BME280;11985;49.404;7.734;2023-07-16T00:22:29;97078.72;;;16.09;100.00
23616;BME280;11985;49.404;7.734;2023-07-16T00:27:31;97097.56;;;16.07;100.00
23616;BME280;11985;49.404;7.734;2023-07-16T00:32:33;97082.16;;;16.09;100.00
23616;BME280;11985;49.404;7.734;2023-07-16T00:37:36;97086.13;;;16.07;100.00
23616;BME280;11985;49.404;7.734;2023-07-16T00:42:37;97103.34;;;16.04;100.00
23616;BME280;11985;49.404;7.734;2023-07-16T00:47:40;97100.94;;;16.03;100.00
23616;BME280;11985;49.404;7.734;2023-07-16T00:52:43;97114.66;;;15.95;100.00
23616;BME280;11985;49.404;7.734;2023-07-16T00:57:46;97130.25;;;15.91;100.00
23616;BME280;11985;49.404;7.734;2023-07-16T01:02:48;97123.53;;;15.83;100.00
23616;BME280;11985;49.404;7.734;2023-07-16T01:07:55;97137.19;;;15.75;100.00
23616;BME280;11985;49.404;7.734;2023-07-16T01:13:00;97144.50;;;15.68;100.00
23616;BME280;11985;49.404;7.734;2023-07-16T01:18:04;97153.41;;;15.62;100.00
23616;BME280;11985;49.404;7.734;2023-07-16T01:23:34;97165.00;;;15.56;100.00
23616;BME280;11985;49.404;7.734;2023-07-16T01:33:59;97165.38;;;15.48;100.00
23616;BME280;11985;49.404;7.734;2023-07-16T01:39:01;97185.94;;;15.41;100.00
23616;BME280;11985;49.404;7.734;2023-07-16T01:44:03;97167.84;;;15.38;100.00
23616;BME280;11985;49.404;7.734;2023-07-16T01:49:06;97184.72;;;15.31;100.00
23616;BME280;11985;49.404;7.734;2023-07-16T01:54:08;97183.59;;;15.27;100.00
23616;BME280;11985;49.404;7.734;2023-07-16T01:59:09;97180.03;;;15.22;100.00
23616;BME280;11985;49.404;7.734;2023-07-16T02:04:12;97186.75;;;15.13;100.00
23616;BME280;11985;49.404;7.734;2023-07-16T02:09:14;97182.06;;;15.03;100.00
23616;BME280;11985;49.404;7.734;2023-07-16T02:14:16;97187.16;;;14.93;100.00
23616;BME280;11985;49.404;7.734;2023-07-16T02:19:19;97191.78;;;14.86;100.00
23616;BME280;11985;49.404;7.734;2023-07-16T02:24:20;97194.81;;;14.77;100.00
23616;BME280;11985;49.404;7.734;2023-07-16T02:29:22;97193.66;;;14.73;100.00
23616;BME280;11985;49.404;7.734;2023-07-16T02:34:25;97205.78;;;14.69;100.00
23616;BME280;11985;49.404;7.734;2023-07-16T02:39:26;97210.41;;;14.62;100.00
23616;BME280;11985;49.404;7.734;2023-07-16T02:44:28;97215.59;;;14.57;100.00
23616;BME280;11985;49.404;7.734;2023-07-16T02:49:31;97209.00;;;14.60;100.00
23616;BME280;11985;49.404;7.734;2023-07-16T02:54:32;97217.75;;;14.60;100.00
23616;BME280;11985;49.404;7.734;2023-07-16T02:59:34;97227.56;;;14.60;100.00
23616;BME280;11985;49.404;7.734;2023-07-16T03:04:37;97224.34;;;14.58;100.00
23616;BME280;11985;49.404;7.734;2023-07-16T03:09:39;97229.88;;;14.56;100.00
23616;BME280;11985;49.404;7.734;2023-07-16T03:14:41;97234.59;;;14.54;100.00
23616;BME280;11985;49.404;7.734;2023-07-16T03:19:44;97233.31;;;14.45;100.00
23616;BME280;11985;49.404;7.734;2023-07-16T03:24:45;97241.38;;;14.38;100.00
23616;BME280;11985;49.404;7.734;2023-07-16T03:29:47;97243.69;;;14.35;100.00
23616;BME280;11985;49.404;7.734;2023-07-16T03:34:50;97250.94;;;14.27;100.00
23616;BME280;11985;49.404;7.734;2023-07-16T03:39:51;97261.19;;;14.24;100.00
23616;BME280;11985;49.404;7.734;2023-07-16T03:44:53;97263.03;;;14.23;100.00
23616;BME280;11985;49.404;7.734;2023-07-16T03:49:56;97268.75;;;14.20;100.00
23616;BME280;11985;49.404;7.734;2023-07-16T03:54:57;97271.66;;;14.19;100.00
23616;BME280;11985;49.404;7.734;2023-07-16T03:59:59;97275.69;;;14.21;100.00
23616;BME280;11985;49.404;7.734;2023-07-16T04:05:02;97287.91;;;14.22;100.00
23616;BME280;11985;49.404;7.734;2023-07-16T04:10:05;97288.34;;;14.19;100.00
23616;BME280;11985;49.404;7.734;2023-07-16T04:15:08;97304.25;;;14.19;100.00
23616;BME280;11985;49.404;7.734;2023-07-16T04:20:12;97308.38;;;14.15;100.00
23616;BME280;11985;49.404;7.734;2023-07-16T04:25:13;97307.13;;;14.18;100.00
23616;BME280;11985;49.404;7.734;2023-07-16T04:30:16;97305.72;;;14.15;100.00
23616;BME280;11985;49.404;7.734;2023-07-16T04:35:19;97309.94;;;14.05;100.00
23616;BME280;11985;49.404;7.734;2023-07-16T04:40:21;97301.94;;;14.11;100.00
23616;BME280;11985;49.404;7.734;2023-07-16T04:45:22;97308.63;;;14.25;100.00
23616;BME280;11985;49.404;7.734;2023-07-16T04:50:25;97318.31;;;14.32;100.00
23616;BME280;11985;49.404;7.734;2023-07-16T04:55:27;97332.28;;;14.39;100.00
23616;BME280;11985;49.404;7.734;2023-07-16T05:00:29;97337.34;;;14.40;100.00
23616;BME280;11985;49.404;7.734;2023-07-16T05:05:32;97335.06;;;14.44;100.00
23616;BME280;11985;49.404;7.734;2023-07-16T05:10:35;97337.25;;;14.47;100.00
23616;BME280;11985;49.404;7.734;2023-07-16T05:15:37;97351.00;;;14.56;100.00
23616;BME280;11985;49.404;7.734;2023-07-16T05:20:40;97359.16;;;14.54;100.00
23616;BME280;11985;49.404;7.734;2023-07-16T05:25:45;97367.72;;;14.56;100.00
23616;BME280;11985;49.404;7.734;2023-07-16T05:30:47;97365.63;;;14.58;100.00
23616;BME280;11985;49.404;7.734;2023-07-16T05:35:50;97369.31;;;14.57;100.00
23616;BME280;11985;49.404;7.734;2023-07-16T05:40:51;97379.38;;;14.67;100.00
23616;BME280;11985;49.404;7.734;2023-07-16T05:45:53;97377.16;;;14.75;100.00
23616;BME280;11985;49.404;7.734;2023-07-16T05:50:56;97385.25;;;14.81;100.00
23616;BME280;11985;49.404;7.734;2023-07-16T05:55:58;97377.09;;;14.94;100.00
23616;BME280;11985;49.404;7.734;2023-07-16T06:00:59;97380.41;;;15.01;100.00
23616;BME280;11985;49.404;7.734;2023-07-16T06:06:02;97377.50;;;15.26;100.00
23616;BME280;11985;49.404;7.734;2023-07-16T06:11:04;97389.03;;;15.31;100.00
23616;BME280;11985;49.404;7.734;2023-07-16T06:16:06;97388.09;;;15.38;100.00
23616;BME280;11985;49.404;7.734;2023-07-16T06:21:09;97389.22;;;15.65;100.00
23616;BME280;11985;49.404;7.734;2023-07-16T06:26:10;97392.31;;;15.86;100.00
23616;BME280;11985;49.404;7.734;2023-07-16T06:31:12;97403.72;;;15.86;100.00
23616;BME280;11985;49.404;7.734;2023-07-16T06:36:15;97402.63;;;15.99;100.00
23616;BME280;11985;49.404;7.734;2023-07-16T06:41:17;97407.69;;;16.12;100.00
23616;BME280;11985;49.404;7.734;2023-07-16T06:46:19;97409.69;;;16.05;100.00
23616;BME280;11985;49.404;7.734;2023-07-16T06:51:22;97405.59;;;16.14;100.00
23616;BME280;11985;49.404;7.734;2023-07-16T06:56:24;97410.75;;;16.21;100.00
23616;BME280;11985;49.404;7.734;2023-07-16T07:01:25;97417.38;;;16.18;100.00
23616;BME280;11985;49.404;7.734;2023-07-16T07:06:29;97415.84;;;16.22;100.00
23616;BME280;11985;49.404;7.734;2023-07-16T07:11:31;97417.59;;;16.45;100.00
23616;BME280;11985;49.404;7.734;2023-07-16T07:16:32;97426.06;;;16.59;100.00
23616;BME280;11985;49.404;7.734;2023-07-16T07:21:36;97425.81;;;17.06;100.00
23616;BME280;11985;49.404;7.734;2023-07-16T07:26:37;97438.91;;;17.29;100.00
23616;BME280;11985;49.404;7.734;2023-07-16T07:31:39;97423.94;;;17.23;100.00
23616;BME280;11985;49.404;7.734;2023-07-16T07:36:42;97430.16;;;17.51;100.00
23616;BME280;11985;49.404;7.734;2023-07-16T07:41:43;97430.66;;;17.86;100.00
23616;BME280;11985;49.404;7.734;2023-07-16T07:46:45;97438.50;;;17.76;100.00
23616;BME280;11985;49.404;7.734;2023-07-16T07:51:48;97435.91;;;17.81;100.00
23616;BME280;11985;49.404;7.734;2023-07-16T07:56:50;97435.44;;;17.84;100.00
23616;BME280;11985;49.404;7.734;2023-07-16T08:01:51;97442.22;;;17.75;100.00
23616;BME280;11985;49.404;7.734;2023-07-16T08:06:54;97442.81;;;18.26;100.00
23616;BME280;11985;49.404;7.734;2023-07-16T08:11:56;97446.03;;;18.01;99.65
23616;BME280;11985;49.404;7.734;2023-07-16T08:16:57;97448.25;;;17.87;99.24
23616;BME280;11985;49.404;7.734;2023-07-16T08:22:00;97439.50;;;18.14;97.45
23616;BME280;11985;49.404;7.734;2023-07-16T08:27:02;97444.50;;;18.32;95.54
23616;BME280;11985;49.404;7.734;2023-07-16T08:32:04;97442.50;;;19.04;93.98
23616;BME280;11985;49.404;7.734;2023-07-16T08:37:07;97444.19;;;19.15;88.31
23616;BME280;11985;49.404;7.734;2023-07-16T08:42:10;97448.66;;;18.72;87.69
23616;BME280;11985;49.404;7.734;2023-07-16T08:47:11;97461.88;;;18.62;87.74
23616;BME280;11985;49.404;7.734;2023-07-16T08:52:15;97466.94;;;18.36;87.60
23616;BME280;11985;49.404;7.734;2023-07-16T08:57:18;97461.31;;;18.33;86.86
23616;BME280;11985;49.404;7.734;2023-07-16T09:02:21;97471.03;;;18.44;85.44
23616;BME280;11985;49.404;7.734;2023-07-16T09:07:24;97457.66;;;18.39;84.52
23616;BME280;11985;49.404;7.734;2023-07-16T09:12:25;97460.56;;;18.91;82.79
23616;BME280;11985;49.404;7.734;2023-07-16T09:17:27;97460.47;;;18.81;81.87
23616;BME280;11985;49.404;7.734;2023-07-16T09:22:30;97463.44;;;19.17;80.63
23616;BME280;11985;49.404;7.734;2023-07-16T09:27:32;97478.53;;;19.01;79.45
23616;BME280;11985;49.404;7.734;2023-07-16T09:32:34;97469.34;;;19.24;77.69
23616;BME280;11985;49.404;7.734;2023-07-16T09:37:38;97468.63;;;19.34;74.77
23616;BME280;11985;49.404;7.734;2023-07-16T09:42:41;97463.41;;;19.54;73.35
23616;BME280;11985;49.404;7.734;2023-07-16T09:47:43;97461.31;;;19.56;72.07
23616;BME280;11985;49.404;7.734;2023-07-16T09:52:47;97462.56;;;19.91;71.19
23616;BME280;11985;49.404;7.734;2023-07-16T09:57:51;97461.47;;;19.39;70.19
23616;BME280;11985;49.404;7.734;2023-07-16T10:02:54;97457.66;;;19.30;71.25
23616;BME280;11985;49.404;7.734;2023-07-16T10:07:58;97453.56;;;19.17;71.07
23616;BME280;11985;49.404;7.734;2023-07-16T10:13:01;97466.19;;;18.95;71.24
23616;BME280;11985;49.404;7.734;2023-07-16T10:18:03;97465.44;;;18.67;72.63
23616;BME280;11985;49.404;7.734;2023-07-16T10:23:16;97467.22;;;18.62;73.78
23616;BME280;11985;49.404;7.734;2023-07-16T10:28:17;97468.72;;;18.53;73.94
23616;BME280;11985;49.404;7.734;2023-07-16T10:33:19;97463.72;;;18.61;74.68
23616;BME280;11985;49.404;7.734;2023-07-16T10:38:23;97463.31;;;18.47;75.40
23616;BME280;11985;49.404;7.734;2023-07-16T10:43:25;97462.78;;;18.45;76.69
23616;BME280;11985;49.404;7.734;2023-07-16T10:48:27;97463.47;;;18.63;76.55
23616;BME280;11985;49.404;7.734;2023-07-16T10:53:30;97460.72;;;18.80;76.01
23616;BME280;11985;49.404;7.734;2023-07-16T10:58:31;97456.91;;;19.03;74.41
23616;BME280;11985;49.404;7.734;2023-07-16T11:03:34;97455.56;;;19.00;73.35
23616;BME280;11985;49.404;7.734;2023-07-16T11:08:37;97459.63;;;19.08;72.48
23616;BME280;11985;49.404;7.734;2023-07-16T11:13:39;97458.09;;;19.17;72.21
23616;BME280;11985;49.404;7.734;2023-07-16T11:18:42;97459.28;;;19.36;71.20
23616;BME280;11985;49.404;7.734;2023-07-16T11:23:45;97454.00;;;19.41;69.36
23616;BME280;11985;49.404;7.734;2023-07-16T11:28:50;97457.66;;;19.30;68.51
23616;BME280;11985;49.404;7.734;2023-07-16T11:33:52;97463.41;;;20.01;68.20
23616;BME280;11985;49.404;7.734;2023-07-16T11:38:55;97454.00;;;20.87;67.06
23616;BME280;11985;49.404;7.734;2023-07-16T11:43:59;97459.63;;;20.55;63.84
23616;BME280;11985;49.404;7.734;2023-07-16T11:49:02;97449.34;;;20.37;62.90
23616;BME280;11985;49.404;7.734;2023-07-16T11:54:05;97446.91;;;20.20;61.75
23616;BME280;11985;49.404;7.734;2023-07-16T11:59:07;97442.06;;;20.12;62.04
23616;BME280;11985;49.404;7.734;2023-07-16T12:04:08;97442.94;;;20.43;61.77
23616;BME280;11985;49.404;7.734;2023-07-16T12:09:11;97444.34;;;20.71;60.53
23616;BME280;11985;49.404;7.734;2023-07-16T12:14:13;97436.06;;;21.03;60.04
23616;BME280;11985;49.404;7.734;2023-07-16T12:19:14;97439.00;;;21.52;59.63
23616;BME280;11985;49.404;7.734;2023-07-16T12:24:17;97435.75;;;22.30;58.37
23616;BME280;11985;49.404;7.734;2023-07-16T12:29:19;97424.97;;;22.80;56.38
23616;BME280;11985;49.404;7.734;2023-07-16T12:34:21;97425.78;;;22.80;55.00
23616;BME280;11985;49.404;7.734;2023-07-16T12:39:24;97428.00;;;22.68;53.08
23616;BME280;11985;49.404;7.734;2023-07-16T12:44:26;97426.59;;;22.36;52.29
23616;BME280;11985;49.404;7.734;2023-07-16T12:49:27;97420.72;;;22.74;51.75
23616;BME280;11985;49.404;7.734;2023-07-16T12:54:31;97435.56;;;22.22;50.93
23616;BME280;11985;49.404;7.734;2023-07-16T12:59:32;97421.50;;;22.40;51.34
23616;BME280;11985;49.404;7.734;2023-07-16T13:04:34;97425.41;;;22.03;51.21
23616;BME280;11985;49.404;7.734;2023-07-16T13:09:37;97422.88;;;21.68;51.64
23616;BME280;11985;49.404;7.734;2023-07-16T13:14:38;97418.03;;;21.70;52.17
23616;BME280;11985;49.404;7.734;2023-07-16T13:19:40;97422.09;;;21.62;52.87
23616;BME280;11985;49.404;7.734;2023-07-16T13:24:43;97424.72;;;21.77;53.19
23616;BME280;11985;49.404;7.734;2023-07-16T13:29:45;97430.78;;;22.97;52.88
23616;BME280;11985;49.404;7.734;2023-07-16T13:34:46;97428.66;;;23.52;51.86
23616;BME280;11985;49.404;7.734;2023-07-16T13:39:49;97426.00;;;23.47;49.84
23616;BME280;11985;49.404;7.734;2023-07-16T13:44:51;97424.72;;;23.68;49.21
23616;BME280;11985;49.404;7.734;2023-07-16T13:49:52;97419.56;;;23.96;48.87
23616;BME280;11985;49.404;7.734;2023-07-16T13:54:55;97423.34;;;23.95;47.91
23616;BME280;11985;49.404;7.734;2023-07-16T13:59:57;97425.78;;;23.73;46.78
23616;BME280;11985;49.404;7.734;2023-07-16T14:04:59;97416.59;;;23.97;46.73
23616;BME280;11985;49.404;7.734;2023-07-16T14:10:02;97405.78;;;23.26;45.49
23616;BME280;11985;49.404;7.734;2023-07-16T14:15:04;97412.88;;;23.16;45.68
23616;BME280;11985;49.404;7.734;2023-07-16T14:20:07;97420.22;;;23.59;45.90
23616;BME280;11985;49.404;7.734;2023-07-16T14:25:10;97415.78;;;22.86;45.39
23616;BME280;11985;49.404;7.734;2023-07-16T14:30:12;97414.06;;;23.58;45.96
23616;BME280;11985;49.404;7.734;2023-07-16T14:35:13;97404.16;;;24.20;45.16
23616;BME280;11985;49.404;7.734;2023-07-16T14:40:17;97403.56;;;24.47;44.67
23616;BME280;11985;49.404;7.734;2023-07-16T14:45:20;97410.16;;;24.17;43.84
23616;BME280;11985;49.404;7.734;2023-07-16T14:50:21;97395.91;;;24.36;43.75
23616;BME280;11985;49.404;7.734;2023-07-16T14:55:25;97408.69;;;23.58;43.21
23616;BME280;11985;49.404;7.734;2023-07-16T15:00:26;97394.94;;;24.08;43.20
23616;BME280;11985;49.404;7.734;2023-07-16T15:05:28;97393.81;;;24.33;42.85
23616;BME280;11985;49.404;7.734;2023-07-16T15:10:31;97393.09;;;24.46;43.08
23616;BME280;11985;49.404;7.734;2023-07-16T15:15:33;97384.41;;;23.68;42.90
23616;BME280;11985;49.404;7.734;2023-07-16T15:20:35;97380.69;;;24.26;43.42
23616;BME280;11985;49.404;7.734;2023-07-16T15:25:40;97390.59;;;24.68;42.20
23616;BME280;11985;49.404;7.734;2023-07-16T15:30:42;97374.97;;;24.52;41.91
23616;BME280;11985;49.404;7.734;2023-07-16T15:35:44;97379.06;;;24.49;41.84
23616;BME280;11985;49.404;7.734;2023-07-16T15:40:47;97375.03;;;24.28;41.73
23616;BME280;11985;49.404;7.734;2023-07-16T15:45:49;97371.81;;;23.88;41.90
23616;BME280;11985;49.404;7.734;2023-07-16T15:50:56;97366.00;;;24.37;42.63
23616;BME280;11985;49.404;7.734;2023-07-16T15:55:59;97363.50;;;24.79;41.46
23616;BME280;11985;49.404;7.734;2023-07-16T16:01:01;97361.97;;;24.72;41.37
23616;BME280;11985;49.404;7.734;2023-07-16T16:06:02;97367.13;;;24.88;41.42
23616;BME280;11985;49.404;7.734;2023-07-16T16:11:05;97355.63;;;25.42;41.15
23616;BME280;11985;49.404;7.734;2023-07-16T16:16:07;97361.69;;;25.20;40.69
23616;BME280;11985;49.404;7.734;2023-07-16T16:21:09;97362.03;;;24.35;41.05
23616;BME280;11985;49.404;7.734;2023-07-16T16:26:13;97357.78;;;24.66;41.68
23616;BME280;11985;49.404;7.734;2023-07-16T16:31:14;97354.81;;;24.82;40.86
23616;BME280;11985;49.404;7.734;2023-07-16T16:36:16;97360.38;;;24.71;40.55
23616;BME280;11985;49.404;7.734;2023-07-16T16:41:19;97352.16;;;24.25;40.38
23616;BME280;11985;49.404;7.734;2023-07-16T16:46:21;97358.75;;;23.76;41.30
23616;BME280;11985;49.404;7.734;2023-07-16T16:51:22;97351.03;;;23.69;41.71
23616;BME280;11985;49.404;7.734;2023-07-16T16:56:25;97358.47;;;23.30;42.17
23616;BME280;11985;49.404;7.734;2023-07-16T17:01:27;97356.72;;;22.86;43.06
23616;BME280;11985;49.404;7.734;2023-07-16T17:06:29;97356.50;;;23.11;43.11
23616;BME280;11985;49.404;7.734;2023-07-16T17:11:32;97351.50;;;23.29;42.88
23616;BME280;11985;49.404;7.734;2023-07-16T17:16:33;97364.53;;;23.16;42.65
23616;BME280;11985;49.404;7.734;2023-07-16T17:21:35;97364.63;;;23.06;42.85
23616;BME280;11985;49.404;7.734;2023-07-16T17:26:39;97359.75;;;23.08;43.06
23616;BME280;11985;49.404;7.734;2023-07-16T17:31:40;97368.91;;;23.07;43.63
23616;BME280;11985;49.404;7.734;2023-07-16T17:36:42;97372.53;;;23.22;44.63
23616;BME280;11985;49.404;7.734;2023-07-16T17:41:45;97367.41;;;22.96;44.37
23616;BME280;11985;49.404;7.734;2023-07-16T17:46:49;97368.63;;;22.75;44.39
23616;BME280;11985;49.404;7.734;2023-07-16T17:51:50;97366.50;;;22.72;45.46
23616;BME280;11985;49.404;7.734;2023-07-16T17:56:54;97369.28;;;22.61;45.62
23616;BME280;11985;49.404;7.734;2023-07-16T18:01:55;97366.16;;;22.49;45.55
23616;BME280;11985;49.404;7.734;2023-07-16T18:06:57;97364.44;;;22.24;45.55
23616;BME280;11985;49.404;7.734;2023-07-16T18:12:00;97376.00;;;22.09;46.94
23616;BME280;11985;49.404;7.734;2023-07-16T18:17:01;97377.50;;;21.81;47.14
23616;BME280;11985;49.404;7.734;2023-07-16T18:22:04;97375.47;;;21.58;47.19
23616;BME280;11985;49.404;7.734;2023-07-16T18:27:07;97369.59;;;21.46;47.65
23616;BME280;11985;49.404;7.734;2023-07-16T18:32:08;97367.22;;;21.34;49.55
23616;BME280;11985;49.404;7.734;2023-07-16T18:37:12;97378.47;;;21.21;51.36
23616;BME280;11985;49.404;7.734;2023-07-16T18:42:15;97376.38;;;21.02;52.63
23616;BME280;11985;49.404;7.734;2023-07-16T18:47:16;97371.81;;;20.93;53.73
23616;BME280;11985;49.404;7.734;2023-07-16T18:52:18;97379.59;;;20.74;55.26
23616;BME280;11985;49.404;7.734;2023-07-16T18:57:21;97383.84;;;20.44;56.23
23616;BME280;11985;49.404;7.734;2023-07-16T19:02:24;97378.16;;;20.15;57.58
23616;BME280;11985;49.404;7.734;2023-07-16T19:07:25;97376.53;;;19.94;58.83
23616;BME280;11985;49.404;7.734;2023-07-16T19:12:30;97386.03;;;19.69;60.50
23616;BME280;11985;49.404;7.734;2023-07-16T19:17:31;97387.25;;;19.46;61.68
23616;BME280;11985;49.404;7.734;2023-07-16T19:22:34;97393.00;;;19.23;63.38
23616;BME280;11985;49.404;7.734;2023-07-16T19:27:39;97398.94;;;18.98;64.85
23616;BME280;11985;49.404;7.734;2023-07-16T19:32:40;97404.44;;;18.81;66.61
23616;BME280;11985;49.404;7.734;2023-07-16T19:37:42;97419.72;;;18.64;68.02
23616;BME280;11985;49.404;7.734;2023-07-16T19:42:45;97421.50;;;18.53;69.83
23616;BME280;11985;49.404;7.734;2023-07-16T19:47:47;97429.13;;;18.39;71.88
23616;BME280;11985;49.404;7.734;2023-07-16T19:52:48;97435.13;;;18.30;73.31
23616;BME280;11985;49.404;7.734;2023-07-16T19:57:51;97434.78;;;18.21;74.46
23616;BME280;11985;49.404;7.734;2023-07-16T20:02:53;97448.75;;;18.06;75.28
23616;BME280;11985;49.404;7.734;2023-07-16T20:07:54;97451.53;;;17.94;75.23
23616;BME280;11985;49.404;7.734;2023-07-16T20:12:57;97451.69;;;18.10;75.69
23616;BME280;11985;49.404;7.734;2023-07-16T20:17:59;97450.75;;;18.21;76.23
23616;BME280;11985;49.404;7.734;2023-07-16T20:23:01;97451.75;;;18.15;76.91
23616;BME280;11985;49.404;7.734;2023-07-16T20:28:06;97451.53;;;17.94;76.90
23616;BME280;11985;49.404;7.734;2023-07-16T20:33:08;97450.63;;;17.67;77.74
23616;BME280;11985;49.404;7.734;2023-07-16T20:38:10;97447.84;;;17.40;79.26
23616;BME280;11985;49.404;7.734;2023-07-16T20:43:13;97454.72;;;17.19;80.82
23616;BME280;11985;49.404;7.734;2023-07-16T20:48:16;97451.19;;;16.97;82.56
23616;BME280;11985;49.404;7.734;2023-07-16T20:53:18;97452.94;;;16.74;82.92
23616;BME280;11985;49.404;7.734;2023-07-16T20:58:22;97460.41;;;16.60;83.93
23616;BME280;11985;49.404;7.734;2023-07-16T21:03:24;97458.66;;;16.66;85.48
23616;BME280;11985;49.404;7.734;2023-07-16T21:08:27;97454.56;;;16.75;87.01
23616;BME280;11985;49.404;7.734;2023-07-16T21:13:30;97464.22;;;16.81;87.66
23616;BME280;11985;49.404;7.734;2023-07-16T21:18:32;97463.13;;;16.77;88.39
23616;BME280;11985;49.404;7.734;2023-07-16T21:23:34;97459.66;;;16.65;88.99
23616;BME280;11985;49.404;7.734;2023-07-16T21:28:37;97469.31;;;16.54;90.00
23616;BME280;11985;49.404;7.734;2023-07-16T21:33:39;97471.00;;;16.44;91.55
23616;BME280;11985;49.404;7.734;2023-07-16T21:38:40;97471.53;;;16.29;93.05
23616;BME280;11985;49.404;7.734;2023-07-16T21:43:43;97469.84;;;16.11;94.08
23616;BME280;11985;49.404;7.734;2023-07-16T21:48:45;97469.28;;;15.97;95.35
23616;BME280;11985;49.404;7.734;2023-07-16T21:53:47;97476.13;;;15.81;96.25
23616;BME280;11985;49.404;7.734;2023-07-16T21:58:49;97474.31;;;15.70;97.90
23616;BME280;11985;49.404;7.734;2023-07-16T22:03:52;97475.69;;;15.61;99.25
23616;BME280;11985;49.404;7.734;2023-07-16T22:08:54;97477.06;;;15.52;100.00
23616;BME280;11985;49.404;7.734;2023-07-16T22:13:57;97478.94;;;15.40;100.00
23616;BME280;11985;49.404;7.734;2023-07-16T22:18:58;97478.13;;;15.27;100.00
23616;BME280;11985;49.404;7.734;2023-07-16T22:24:00;97475.00;;;15.19;100.00
23616;BME280;11985;49.404;7.734;2023-07-16T22:29:04;97478.81;;;15.11;100.00
23616;BME280;11985;49.404;7.734;2023-07-16T22:34:05;97475.09;;;15.00;100.00
23616;BME280;11985;49.404;7.734;2023-07-16T22:39:07;97484.88;;;14.88;100.00
23616;BME280;11985;49.404;7.734;2023-07-16T22:44:10;97485.66;;;14.77;100.00
23616;BME280;11985;49.404;7.734;2023-07-16T22:49:11;97498.72;;;14.60;100.00
23616;BME280;11985;49.404;7.734;2023-07-16T22:54:13;97499.84;;;14.52;100.00
23616;BME280;11985;49.404;7.734;2023-07-16T22:59:16;97501.56;;;14.47;100.00
23616;BME280;11985;49.404;7.734;2023-07-16T23:04:18;97497.69;;;14.49;100.00
23616;BME280;11985;49.404;7.734;2023-07-16T23:09:19;97498.25;;;14.51;100.00
23616;BME280;11985;49.404;7.734;2023-07-16T23:14:22;97502.56;;;14.46;100.00
23616;BME280;11985;49.404;7.734;2023-07-16T23:19:24;97494.63;;;14.46;100.00
23616;BME280;11985;49.404;7.734;2023-07-16T23:24:25;97488.69;;;14.50;100.00
23616;BME280;11985;49.404;7.734;2023-07-16T23:29:28;97488.00;;;14.55;100.00
23616;BME280;11985;49.404;7.734;2023-07-16T23:34:30;97491.53;;;14.49;100.00
23616;BME280;11985;49.404;7.734;2023-07-16T23:39:32;97501.13;;;14.50;100.00
23616;BME280;11985;49.404;7.734;2023-07-16T23:44:35;97500.66;;;14.53;100.00
23616;BME280;11985;49.404;7.734;2023-07-16T23:49:36;97493.75;;;14.52;100.00
23616;BME280;11985;49.404;7.734;2023-07-16T23:54:38;97494.94;;;14.56;100.00
23616;BME280;11985;49.404;7.734;2023-07-16T23:59:41;97492.13;;;14.51;100.00
